sensor_id;sensor_type;location;lat;lon;timestamp;P1;durP1;ratioP1;P2;durP2;ratioP2
32295;SDS011;18781;51.550;5.418;2023-08-31T00:00:42;6.97;;;3.83;;
32295;SDS011;18781;51.550;5.418;2023-08-31T00:03:09;5.20;;;3.90;;
32295;SDS011;18781;51.550;5.418;2023-08-31T00:05:40;6.20;;;4.15;;
32295;SDS011;18781;51.550;5.418;2023-08-31T00:08:07;7.25;;;4.70;;
32295;SDS011;18781;51.550;5.418;2023-08-31T00:10:34;7.15;;;4.20;;
32295;SDS011;18781;51.550;5.418;2023-08-31T00:13:00;9.05;;;4.85;;
32295;SDS011;18781;51.550;5.418;2023-08-31T00:15:26;6.30;;;4.53;;
32295;SDS011;18781;51.550;5.418;2023-08-31T00:17:53;8.85;;;5.00;;
32295;SDS011;18781;51.550;5.418;2023-08-31T00:20:19;7.97;;;4.70;;
32295;SDS011;18781;51.550;5.418;2023-08-31T00:22:45;7.75;;;4.85;;
32295;SDS011;18781;51.550;5.418;2023-08-31T00:25:10;7.43;;;4.78;;
32295;SDS011;18781;51.550;5.418;2023-08-31T00:27:36;10.88;;;5.18;;
32295;SDS011;18781;51.550;5.418;2023-08-31T00:30:05;9.20;;;5.00;;
32295;SDS011;18781;51.550;5.418;2023-08-31T00:32:33;8.30;;;5.30;;
32295;SDS011;18781;51.550;5.418;2023-08-31T00:34:59;10.27;;;5.63;;
32295;SDS011;18781;51.550;5.418;2023-08-31T00:37:25;8.65;;;5.13;;
32295;SDS011;18781;51.550;5.418;2023-08-31T00:39:51;9.27;;;5.65;;
32295;SDS011;18781;51.550;5.418;2023-08-31T00:42:17;10.98;;;5.90;;
32295;SDS011;18781;51.550;5.418;2023-08-31T00:44:43;9.27;;;5.57;;
32295;SDS011;18781;51.550;5.418;2023-08-31T00:47:12;8.82;;;5.82;;
32295;SDS011;18781;51.550;5.418;2023-08-31T00:49:38;10.68;;;5.93;;
32295;SDS011;18781;51.550;5.418;2023-08-31T00:52:05;8.13;;;5.85;;
32295;SDS011;18781;51.550;5.418;2023-08-31T00:54:31;11.40;;;5.70;;
32295;SDS011;18781;51.550;5.418;2023-08-31T00:56:58;10.38;;;5.75;;
32295;SDS011;18781;51.550;5.418;2023-08-31T00:59:23;10.25;;;6.50;;
32295;SDS011;18781;51.550;5.418;2023-08-31T01:04:22;8.13;;;5.97;;
32295;SDS011;18781;51.550;5.418;2023-08-31T01:07:03;8.82;;;6.07;;
32295;SDS011;18781;51.550;5.418;2023-08-31T01:12:22;9.98;;;5.90;;
32295;SDS011;18781;51.550;5.418;2023-08-31T01:15:04;7.82;;;5.72;;
32295;SDS011;18781;51.550;5.418;2023-08-31T01:17:34;11.35;;;5.90;;
32295;SDS011;18781;51.550;5.418;2023-08-31T01:20:07;9.80;;;6.65;;
32295;SDS011;18781;51.550;5.418;2023-08-31T01:22:47;10.30;;;6.15;;
32295;SDS011;18781;51.550;5.418;2023-08-31T01:25:20;9.02;;;6.03;;
32295;SDS011;18781;51.550;5.418;2023-08-31T01:27:46;10.88;;;5.53;;
32295;SDS011;18781;51.550;5.418;2023-08-31T01:30:12;9.90;;;5.88;;
32295;SDS011;18781;51.550;5.418;2023-08-31T01:32:38;10.38;;;6.22;;
32295;SDS011;18781;51.550;5.418;2023-08-31T01:35:10;9.25;;;5.32;;
32295;SDS011;18781;51.550;5.418;2023-08-31T01:40:31;11.07;;;5.90;;
32295;SDS011;18781;51.550;5.418;2023-08-31T01:42:58;10.85;;;6.40;;
32295;SDS011;18781;51.550;5.418;2023-08-31T01:45:31;9.00;;;6.00;;
32295;SDS011;18781;51.550;5.418;2023-08-31T01:48:02;9.98;;;6.07;;
32295;SDS011;18781;51.550;5.418;2023-08-31T01:50:29;9.40;;;6.60;;
32295;SDS011;18781;51.550;5.418;2023-08-31T01:52:55;14.07;;;6.20;;
32295;SDS011;18781;51.550;5.418;2023-08-31T01:55:21;10.57;;;6.47;;
32295;SDS011;18781;51.550;5.418;2023-08-31T01:57:47;9.35;;;6.22;;
32295;SDS011;18781;51.550;5.418;2023-08-31T02:00:13;9.13;;;6.63;;
32295;SDS011;18781;51.550;5.418;2023-08-31T02:02:40;9.27;;;6.55;;
32295;SDS011;18781;51.550;5.418;2023-08-31T02:05:07;14.90;;;7.38;;
32295;SDS011;18781;51.550;5.418;2023-08-31T02:07:33;10.90;;;6.65;;
32295;SDS011;18781;51.550;5.418;2023-08-31T02:09:58;12.02;;;7.45;;
32295;SDS011;18781;51.550;5.418;2023-08-31T02:12:24;8.90;;;6.57;;
32295;SDS011;18781;51.550;5.418;2023-08-31T02:14:50;11.20;;;7.20;;
32295;SDS011;18781;51.550;5.418;2023-08-31T02:17:15;16.85;;;7.65;;
32295;SDS011;18781;51.550;5.418;2023-08-31T02:19:41;11.40;;;7.72;;
32295;SDS011;18781;51.550;5.418;2023-08-31T02:22:07;11.52;;;7.72;;
32295;SDS011;18781;51.550;5.418;2023-08-31T02:24:32;13.20;;;8.35;;
32295;SDS011;18781;51.550;5.418;2023-08-31T02:26:58;14.77;;;8.32;;
32295;SDS011;18781;51.550;5.418;2023-08-31T02:29:23;13.23;;;8.88;;
32295;SDS011;18781;51.550;5.418;2023-08-31T02:31:49;17.10;;;7.97;;
32295;SDS011;18781;51.550;5.418;2023-08-31T02:34:14;11.30;;;7.93;;
32295;SDS011;18781;51.550;5.418;2023-08-31T02:36:40;13.48;;;8.13;;
32295;SDS011;18781;51.550;5.418;2023-08-31T02:39:06;14.75;;;8.02;;
32295;SDS011;18781;51.550;5.418;2023-08-31T02:41:31;11.23;;;8.07;;
32295;SDS011;18781;51.550;5.418;2023-08-31T02:43:57;14.93;;;8.65;;
32295;SDS011;18781;51.550;5.418;2023-08-31T02:46:22;16.42;;;8.50;;
32295;SDS011;18781;51.550;5.418;2023-08-31T02:48:48;15.68;;;8.63;;
32295;SDS011;18781;51.550;5.418;2023-08-31T02:51:14;12.88;;;8.25;;
32295;SDS011;18781;51.550;5.418;2023-08-31T02:53:40;14.70;;;8.60;;
32295;SDS011;18781;51.550;5.418;2023-08-31T02:56:06;18.92;;;8.90;;
32295;SDS011;18781;51.550;5.418;2023-08-31T02:58:32;14.55;;;8.65;;
32295;SDS011;18781;51.550;5.418;2023-08-31T03:01:10;11.82;;;9.27;;
32295;SDS011;18781;51.550;5.418;2023-08-31T03:03:37;13.27;;;9.85;;
32295;SDS011;18781;51.550;5.418;2023-08-31T03:06:03;16.27;;;11.85;;
32295;SDS011;18781;51.550;5.418;2023-08-31T03:08:30;22.55;;;14.43;;
32295;SDS011;18781;51.550;5.418;2023-08-31T03:10:56;21.50;;;15.45;;
32295;SDS011;18781;51.550;5.418;2023-08-31T03:13:23;20.60;;;15.82;;
32295;SDS011;18781;51.550;5.418;2023-08-31T03:15:48;23.75;;;16.50;;
32295;SDS011;18781;51.550;5.418;2023-08-31T03:18:14;25.33;;;16.60;;
32295;SDS011;18781;51.550;5.418;2023-08-31T03:20:39;25.00;;;16.35;;
32295;SDS011;18781;51.550;5.418;2023-08-31T03:23:05;22.95;;;15.43;;
32295;SDS011;18781;51.550;5.418;2023-08-31T03:25:30;23.38;;;14.90;;
32295;SDS011;18781;51.550;5.418;2023-08-31T03:27:56;26.10;;;14.18;;
32295;SDS011;18781;51.550;5.418;2023-08-31T03:30:22;20.05;;;14.25;;
32295;SDS011;18781;51.550;5.418;2023-08-31T03:32:47;16.77;;;13.40;;
32295;SDS011;18781;51.550;5.418;2023-08-31T03:35:13;16.88;;;13.43;;
32295;SDS011;18781;51.550;5.418;2023-08-31T03:37:39;18.35;;;13.10;;
32295;SDS011;18781;51.550;5.418;2023-08-31T03:40:04;22.63;;;12.98;;
32295;SDS011;18781;51.550;5.418;2023-08-31T03:42:31;22.65;;;13.13;;
32295;SDS011;18781;51.550;5.418;2023-08-31T03:44:58;19.40;;;13.07;;
32295;SDS011;18781;51.550;5.418;2023-08-31T03:47:24;15.43;;;11.93;;
32295;SDS011;18781;51.550;5.418;2023-08-31T03:49:50;18.90;;;12.55;;
32295;SDS011;18781;51.550;5.418;2023-08-31T03:52:15;16.85;;;13.00;;
32295;SDS011;18781;51.550;5.418;2023-08-31T03:54:41;17.20;;;12.95;;
32295;SDS011;18781;51.550;5.418;2023-08-31T03:57:06;20.58;;;13.68;;
32295;SDS011;18781;51.550;5.418;2023-08-31T03:59:32;19.65;;;15.30;;
32295;SDS011;18781;51.550;5.418;2023-08-31T04:01:58;22.25;;;15.35;;
32295;SDS011;18781;51.550;5.418;2023-08-31T04:04:24;21.50;;;16.52;;
32295;SDS011;18781;51.550;5.418;2023-08-31T04:06:50;20.35;;;16.55;;
32295;SDS011;18781;51.550;5.418;2023-08-31T04:09:15;24.95;;;16.50;;
32295;SDS011;18781;51.550;5.418;2023-08-31T04:11:41;21.33;;;15.85;;
32295;SDS011;18781;51.550;5.418;2023-08-31T04:14:06;24.98;;;16.90;;
32295;SDS011;18781;51.550;5.418;2023-08-31T04:16:32;21.95;;;16.85;;
32295;SDS011;18781;51.550;5.418;2023-08-31T04:18:58;20.88;;;16.10;;
32295;SDS011;18781;51.550;5.418;2023-08-31T04:21:23;26.80;;;16.98;;
32295;SDS011;18781;51.550;5.418;2023-08-31T04:23:49;21.73;;;16.60;;
32295;SDS011;18781;51.550;5.418;2023-08-31T04:26:14;21.75;;;16.17;;
32295;SDS011;18781;51.550;5.418;2023-08-31T04:28:41;25.52;;;16.38;;
32295;SDS011;18781;51.550;5.418;2023-08-31T04:31:07;22.23;;;16.25;;
32295;SDS011;18781;51.550;5.418;2023-08-31T04:33:34;24.42;;;16.23;;
32295;SDS011;18781;51.550;5.418;2023-08-31T04:36:00;24.80;;;16.50;;
32295;SDS011;18781;51.550;5.418;2023-08-31T04:38:26;25.17;;;15.05;;
32295;SDS011;18781;51.550;5.418;2023-08-31T04:40:52;22.58;;;15.23;;
32295;SDS011;18781;51.550;5.418;2023-08-31T04:43:17;20.35;;;13.55;;
32295;SDS011;18781;51.550;5.418;2023-08-31T04:45:43;19.02;;;13.20;;
32295;SDS011;18781;51.550;5.418;2023-08-31T04:48:08;19.15;;;12.18;;
32295;SDS011;18781;51.550;5.418;2023-08-31T04:50:34;18.25;;;12.57;;
32295;SDS011;18781;51.550;5.418;2023-08-31T04:53:00;17.35;;;11.95;;
32295;SDS011;18781;51.550;5.418;2023-08-31T04:55:25;17.90;;;11.00;;
32295;SDS011;18781;51.550;5.418;2023-08-31T04:57:51;18.52;;;11.05;;
32295;SDS011;18781;51.550;5.418;2023-08-31T05:00:17;16.00;;;11.77;;
32295;SDS011;18781;51.550;5.418;2023-08-31T05:02:43;17.98;;;10.88;;
32295;SDS011;18781;51.550;5.418;2023-08-31T05:05:08;13.27;;;9.95;;
32295;SDS011;18781;51.550;5.418;2023-08-31T05:07:34;14.90;;;10.27;;
32295;SDS011;18781;51.550;5.418;2023-08-31T05:10:00;16.27;;;9.98;;
32295;SDS011;18781;51.550;5.418;2023-08-31T05:12:25;14.32;;;9.18;;
32295;SDS011;18781;51.550;5.418;2023-08-31T05:14:51;14.18;;;9.75;;
32295;SDS011;18781;51.550;5.418;2023-08-31T05:17:16;12.60;;;9.77;;
32295;SDS011;18781;51.550;5.418;2023-08-31T05:19:42;13.45;;;9.23;;
32295;SDS011;18781;51.550;5.418;2023-08-31T05:22:08;16.88;;;9.05;;
32295;SDS011;18781;51.550;5.418;2023-08-31T05:24:34;15.18;;;8.63;;
32295;SDS011;18781;51.550;5.418;2023-08-31T05:26:59;15.90;;;8.43;;
32295;SDS011;18781;51.550;5.418;2023-08-31T05:29:25;13.63;;;8.73;;
32295;SDS011;18781;51.550;5.418;2023-08-31T05:31:53;15.13;;;8.80;;
32295;SDS011;18781;51.550;5.418;2023-08-31T05:34:22;13.40;;;8.35;;
32295;SDS011;18781;51.550;5.418;2023-08-31T05:36:50;12.10;;;7.72;;
32295;SDS011;18781;51.550;5.418;2023-08-31T05:39:15;13.93;;;8.10;;
32295;SDS011;18781;51.550;5.418;2023-08-31T05:41:44;11.07;;;7.27;;
32295;SDS011;18781;51.550;5.418;2023-08-31T05:44:09;13.63;;;7.45;;
32295;SDS011;18781;51.550;5.418;2023-08-31T05:46:35;14.98;;;7.72;;
32295;SDS011;18781;51.550;5.418;2023-08-31T05:49:01;17.67;;;7.20;;
32295;SDS011;18781;51.550;5.418;2023-08-31T05:51:27;11.30;;;7.50;;
32295;SDS011;18781;51.550;5.418;2023-08-31T05:53:53;10.23;;;6.88;;
32295;SDS011;18781;51.550;5.418;2023-08-31T05:56:21;14.55;;;7.00;;
32295;SDS011;18781;51.550;5.418;2023-08-31T05:58:46;13.35;;;7.22;;
32295;SDS011;18781;51.550;5.418;2023-08-31T06:01:12;12.15;;;7.30;;
32295;SDS011;18781;51.550;5.418;2023-08-31T06:03:38;9.73;;;7.07;;
32295;SDS011;18781;51.550;5.418;2023-08-31T06:06:04;11.15;;;6.85;;
32295;SDS011;18781;51.550;5.418;2023-08-31T06:08:29;12.07;;;7.07;;
32295;SDS011;18781;51.550;5.418;2023-08-31T06:10:55;11.45;;;6.90;;
32295;SDS011;18781;51.550;5.418;2023-08-31T06:13:21;16.08;;;8.05;;
32295;SDS011;18781;51.550;5.418;2023-08-31T06:15:47;37.30;;;23.27;;
32295;SDS011;18781;51.550;5.418;2023-08-31T06:18:12;15.93;;;8.35;;
32295;SDS011;18781;51.550;5.418;2023-08-31T06:20:38;15.52;;;7.55;;
32295;SDS011;18781;51.550;5.418;2023-08-31T06:23:04;12.30;;;7.40;;
32295;SDS011;18781;51.550;5.418;2023-08-31T06:25:30;16.33;;;7.82;;
32295;SDS011;18781;51.550;5.418;2023-08-31T06:27:56;14.38;;;7.70;;
32295;SDS011;18781;51.550;5.418;2023-08-31T06:30:22;14.43;;;7.85;;
32295;SDS011;18781;51.550;5.418;2023-08-31T06:32:48;14.38;;;7.75;;
32295;SDS011;18781;51.550;5.418;2023-08-31T06:35:15;16.10;;;7.70;;
32295;SDS011;18781;51.550;5.418;2023-08-31T06:37:41;13.52;;;7.07;;
32295;SDS011;18781;51.550;5.418;2023-08-31T06:40:07;10.70;;;6.85;;
32295;SDS011;18781;51.550;5.418;2023-08-31T06:42:37;13.90;;;7.20;;
32295;SDS011;18781;51.550;5.418;2023-08-31T06:45:03;13.15;;;7.70;;
32295;SDS011;18781;51.550;5.418;2023-08-31T06:47:30;15.73;;;7.75;;
32295;SDS011;18781;51.550;5.418;2023-08-31T06:49:56;17.20;;;7.40;;
32295;SDS011;18781;51.550;5.418;2023-08-31T06:52:22;11.30;;;7.03;;
32295;SDS011;18781;51.550;5.418;2023-08-31T06:54:49;9.80;;;6.68;;
32295;SDS011;18781;51.550;5.418;2023-08-31T06:57:14;13.75;;;7.32;;
32295;SDS011;18781;51.550;5.418;2023-08-31T06:59:40;15.93;;;7.30;;
32295;SDS011;18781;51.550;5.418;2023-08-31T07:02:05;11.45;;;7.22;;
32295;SDS011;18781;51.550;5.418;2023-08-31T07:04:31;13.95;;;6.78;;
32295;SDS011;18781;51.550;5.418;2023-08-31T07:06:56;13.27;;;7.28;;
32295;SDS011;18781;51.550;5.418;2023-08-31T07:09:22;13.00;;;7.30;;
32295;SDS011;18781;51.550;5.418;2023-08-31T07:11:47;14.05;;;7.38;;
32295;SDS011;18781;51.550;5.418;2023-08-31T07:14:13;12.40;;;6.95;;
32295;SDS011;18781;51.550;5.418;2023-08-31T07:16:39;11.00;;;6.88;;
32295;SDS011;18781;51.550;5.418;2023-08-31T07:19:04;16.15;;;7.38;;
32295;SDS011;18781;51.550;5.418;2023-08-31T07:21:30;11.45;;;7.35;;
32295;SDS011;18781;51.550;5.418;2023-08-31T07:23:56;11.95;;;7.32;;
32295;SDS011;18781;51.550;5.418;2023-08-31T07:26:22;13.68;;;7.95;;
32295;SDS011;18781;51.550;5.418;2023-08-31T07:28:48;13.70;;;7.65;;
32295;SDS011;18781;51.550;5.418;2023-08-31T07:31:13;12.48;;;7.10;;
32295;SDS011;18781;51.550;5.418;2023-08-31T07:33:40;13.18;;;6.97;;
32295;SDS011;18781;51.550;5.418;2023-08-31T07:36:06;17.25;;;7.53;;
32295;SDS011;18781;51.550;5.418;2023-08-31T07:38:31;12.95;;;7.45;;
32295;SDS011;18781;51.550;5.418;2023-08-31T07:40:57;16.85;;;7.80;;
32295;SDS011;18781;51.550;5.418;2023-08-31T07:43:25;16.30;;;7.60;;
32295;SDS011;18781;51.550;5.418;2023-08-31T07:45:50;13.88;;;8.25;;
32295;SDS011;18781;51.550;5.418;2023-08-31T07:48:17;15.10;;;8.18;;
32295;SDS011;18781;51.550;5.418;2023-08-31T07:50:42;24.15;;;8.85;;
32295;SDS011;18781;51.550;5.418;2023-08-31T07:53:08;20.95;;;8.57;;
32295;SDS011;18781;51.550;5.418;2023-08-31T07:55:34;16.05;;;8.38;;
32295;SDS011;18781;51.550;5.418;2023-08-31T07:58:00;16.52;;;8.48;;
32295;SDS011;18781;51.550;5.418;2023-08-31T08:00:26;17.60;;;8.68;;
32295;SDS011;18781;51.550;5.418;2023-08-31T08:02:52;17.65;;;8.32;;
32295;SDS011;18781;51.550;5.418;2023-08-31T08:05:17;18.92;;;8.82;;
32295;SDS011;18781;51.550;5.418;2023-08-31T08:07:43;16.80;;;8.65;;
32295;SDS011;18781;51.550;5.418;2023-08-31T08:10:09;17.10;;;8.77;;
32295;SDS011;18781;51.550;5.418;2023-08-31T08:12:36;16.50;;;8.90;;
32295;SDS011;18781;51.550;5.418;2023-08-31T08:15:04;17.35;;;8.73;;
32295;SDS011;18781;51.550;5.418;2023-08-31T08:17:30;20.02;;;8.43;;
32295;SDS011;18781;51.550;5.418;2023-08-31T08:19:55;15.43;;;8.32;;
32295;SDS011;18781;51.550;5.418;2023-08-31T08:22:21;14.85;;;8.52;;
32295;SDS011;18781;51.550;5.418;2023-08-31T08:24:46;14.95;;;8.25;;
32295;SDS011;18781;51.550;5.418;2023-08-31T08:27:12;20.17;;;8.77;;
32295;SDS011;18781;51.550;5.418;2023-08-31T08:29:37;18.35;;;8.80;;
32295;SDS011;18781;51.550;5.418;2023-08-31T08:32:03;18.35;;;8.48;;
32295;SDS011;18781;51.550;5.418;2023-08-31T08:34:30;15.82;;;8.10;;
32295;SDS011;18781;51.550;5.418;2023-08-31T08:36:56;19.67;;;8.65;;
32295;SDS011;18781;51.550;5.418;2023-08-31T08:39:22;20.35;;;8.88;;
32295;SDS011;18781;51.550;5.418;2023-08-31T08:41:47;16.63;;;8.85;;
32295;SDS011;18781;51.550;5.418;2023-08-31T08:44:13;16.58;;;9.02;;
32295;SDS011;18781;51.550;5.418;2023-08-31T08:46:41;14.80;;;7.82;;
32295;SDS011;18781;51.550;5.418;2023-08-31T08:49:08;13.75;;;7.70;;
32295;SDS011;18781;51.550;5.418;2023-08-31T08:51:35;15.40;;;7.28;;
32295;SDS011;18781;51.550;5.418;2023-08-31T08:54:01;15.00;;;7.60;;
32295;SDS011;18781;51.550;5.418;2023-08-31T08:56:28;15.48;;;8.25;;
32295;SDS011;18781;51.550;5.418;2023-08-31T08:58:53;17.27;;;8.25;;
32295;SDS011;18781;51.550;5.418;2023-08-31T09:01:21;16.27;;;8.68;;
32295;SDS011;18781;51.550;5.418;2023-08-31T09:03:48;16.33;;;8.38;;
32295;SDS011;18781;51.550;5.418;2023-08-31T09:06:14;15.32;;;8.15;;
32295;SDS011;18781;51.550;5.418;2023-08-31T09:08:40;17.67;;;8.48;;
32295;SDS011;18781;51.550;5.418;2023-08-31T09:11:06;18.88;;;7.97;;
32295;SDS011;18781;51.550;5.418;2023-08-31T09:13:32;15.27;;;7.90;;
32295;SDS011;18781;51.550;5.418;2023-08-31T09:15:58;15.63;;;7.93;;
32295;SDS011;18781;51.550;5.418;2023-08-31T09:18:25;16.60;;;8.20;;
32295;SDS011;18781;51.550;5.418;2023-08-31T09:20:52;16.00;;;7.78;;
32295;SDS011;18781;51.550;5.418;2023-08-31T09:23:18;13.38;;;7.53;;
32295;SDS011;18781;51.550;5.418;2023-08-31T09:25:50;15.95;;;7.43;;
32295;SDS011;18781;51.550;5.418;2023-08-31T09:28:21;19.73;;;7.57;;
32295;SDS011;18781;51.550;5.418;2023-08-31T09:30:48;15.57;;;7.38;;
32295;SDS011;18781;51.550;5.418;2023-08-31T09:33:18;16.23;;;7.28;;
32295;SDS011;18781;51.550;5.418;2023-08-31T09:35:50;12.68;;;7.18;;
32295;SDS011;18781;51.550;5.418;2023-08-31T09:38:22;12.45;;;6.03;;
32295;SDS011;18781;51.550;5.418;2023-08-31T09:40:47;13.15;;;6.90;;
32295;SDS011;18781;51.550;5.418;2023-08-31T09:43:22;15.95;;;7.90;;
32295;SDS011;18781;51.550;5.418;2023-08-31T09:45:49;14.55;;;7.57;;
32295;SDS011;18781;51.550;5.418;2023-08-31T09:48:16;12.80;;;7.38;;
32295;SDS011;18781;51.550;5.418;2023-08-31T09:50:43;13.02;;;6.57;;
32295;SDS011;18781;51.550;5.418;2023-08-31T09:53:10;15.65;;;6.97;;
32295;SDS011;18781;51.550;5.418;2023-08-31T09:55:38;14.65;;;6.75;;
32295;SDS011;18781;51.550;5.418;2023-08-31T09:58:05;13.25;;;6.72;;
32295;SDS011;18781;51.550;5.418;2023-08-31T10:00:35;16.27;;;6.65;;
32295;SDS011;18781;51.550;5.418;2023-08-31T10:03:02;15.38;;;6.43;;
32295;SDS011;18781;51.550;5.418;2023-08-31T10:05:30;12.00;;;5.68;;
32295;SDS011;18781;51.550;5.418;2023-08-31T10:07:57;13.75;;;5.32;;
32295;SDS011;18781;51.550;5.418;2023-08-31T10:10:23;12.20;;;5.10;;
32295;SDS011;18781;51.550;5.418;2023-08-31T10:12:49;17.67;;;5.20;;
32295;SDS011;18781;51.550;5.418;2023-08-31T10:15:16;14.52;;;5.20;;
32295;SDS011;18781;51.550;5.418;2023-08-31T10:17:43;12.10;;;4.90;;
32295;SDS011;18781;51.550;5.418;2023-08-31T10:20:11;17.55;;;5.47;;
32295;SDS011;18781;51.550;5.418;2023-08-31T10:22:39;10.18;;;5.03;;
32295;SDS011;18781;51.550;5.418;2023-08-31T10:25:05;14.63;;;5.00;;
32295;SDS011;18781;51.550;5.418;2023-08-31T10:27:38;9.55;;;4.80;;
32295;SDS011;18781;51.550;5.418;2023-08-31T10:33:41;9.50;;;4.38;;
32295;SDS011;18781;51.550;5.418;2023-08-31T10:41:02;8.68;;;4.45;;
32295;SDS011;18781;51.550;5.418;2023-08-31T10:51:31;13.02;;;4.00;;
32295;SDS011;18781;51.550;5.418;2023-08-31T10:54:39;11.82;;;4.18;;
32295;SDS011;18781;51.550;5.418;2023-08-31T10:59:18;9.32;;;4.20;;
32295;SDS011;18781;51.550;5.418;2023-08-31T11:02:00;9.80;;;4.05;;
32295;SDS011;18781;51.550;5.418;2023-08-31T11:04:30;11.25;;;4.20;;
32295;SDS011;18781;51.550;5.418;2023-08-31T11:09:44;10.20;;;3.33;;
32295;SDS011;18781;51.550;5.418;2023-08-31T11:12:11;8.00;;;3.28;;
32295;SDS011;18781;51.550;5.418;2023-08-31T11:14:38;12.32;;;3.38;;
32295;SDS011;18781;51.550;5.418;2023-08-31T11:17:04;10.52;;;3.33;;
32295;SDS011;18781;51.550;5.418;2023-08-31T11:19:34;13.07;;;3.47;;
32295;SDS011;18781;51.550;5.418;2023-08-31T11:22:00;11.77;;;3.28;;
32295;SDS011;18781;51.550;5.418;2023-08-31T11:24:27;13.27;;;3.58;;
32295;SDS011;18781;51.550;5.418;2023-08-31T11:26:54;11.88;;;3.60;;
32295;SDS011;18781;51.550;5.418;2023-08-31T11:29:20;10.68;;;3.30;;
32295;SDS011;18781;51.550;5.418;2023-08-31T11:31:46;7.55;;;3.75;;
32295;SDS011;18781;51.550;5.418;2023-08-31T11:34:15;11.82;;;4.43;;
32295;SDS011;18781;51.550;5.418;2023-08-31T11:36:42;15.23;;;4.32;;
32295;SDS011;18781;51.550;5.418;2023-08-31T11:39:09;10.75;;;4.10;;
32295;SDS011;18781;51.550;5.418;2023-08-31T11:41:35;8.50;;;3.92;;
32295;SDS011;18781;51.550;5.418;2023-08-31T11:44:06;9.93;;;3.75;;
32295;SDS011;18781;51.550;5.418;2023-08-31T11:46:33;12.00;;;3.80;;
32295;SDS011;18781;51.550;5.418;2023-08-31T11:48:59;7.63;;;3.95;;
32295;SDS011;18781;51.550;5.418;2023-08-31T11:51:25;11.32;;;4.32;;
32295;SDS011;18781;51.550;5.418;2023-08-31T11:53:54;9.05;;;3.38;;
32295;SDS011;18781;51.550;5.418;2023-08-31T11:56:21;11.85;;;3.38;;
32295;SDS011;18781;51.550;5.418;2023-08-31T11:58:46;13.23;;;3.33;;
32295;SDS011;18781;51.550;5.418;2023-08-31T12:01:22;9.18;;;3.60;;
32295;SDS011;18781;51.550;5.418;2023-08-31T12:03:48;11.60;;;3.13;;
32295;SDS011;18781;51.550;5.418;2023-08-31T12:06:14;8.00;;;3.05;;
32295;SDS011;18781;51.550;5.418;2023-08-31T12:08:42;11.10;;;2.78;;
32295;SDS011;18781;51.550;5.418;2023-08-31T12:11:07;10.88;;;3.67;;
32295;SDS011;18781;51.550;5.418;2023-08-31T12:13:33;15.05;;;5.38;;
32295;SDS011;18781;51.550;5.418;2023-08-31T12:15:59;12.13;;;4.22;;
32295;SDS011;18781;51.550;5.418;2023-08-31T12:18:28;11.88;;;4.20;;
32295;SDS011;18781;51.550;5.418;2023-08-31T12:20:56;12.73;;;4.57;;
32295;SDS011;18781;51.550;5.418;2023-08-31T12:23:22;11.68;;;4.32;;
32295;SDS011;18781;51.550;5.418;2023-08-31T12:25:48;8.23;;;3.72;;
32295;SDS011;18781;51.550;5.418;2023-08-31T12:28:16;9.88;;;4.00;;
32295;SDS011;18781;51.550;5.418;2023-08-31T12:30:49;8.73;;;3.70;;
32295;SDS011;18781;51.550;5.418;2023-08-31T12:33:17;10.25;;;4.32;;
32295;SDS011;18781;51.550;5.418;2023-08-31T12:35:43;9.13;;;4.40;;
32295;SDS011;18781;51.550;5.418;2023-08-31T12:38:09;10.48;;;4.13;;
32295;SDS011;18781;51.550;5.418;2023-08-31T12:40:34;10.80;;;4.15;;
32295;SDS011;18781;51.550;5.418;2023-08-31T12:43:00;11.43;;;4.10;;
32295;SDS011;18781;51.550;5.418;2023-08-31T12:45:27;8.95;;;4.22;;
32295;SDS011;18781;51.550;5.418;2023-08-31T12:47:52;12.93;;;4.38;;
32295;SDS011;18781;51.550;5.418;2023-08-31T12:50:18;11.02;;;4.20;;
32295;SDS011;18781;51.550;5.418;2023-08-31T12:52:44;10.35;;;4.47;;
32295;SDS011;18781;51.550;5.418;2023-08-31T12:55:11;8.90;;;4.60;;
32295;SDS011;18781;51.550;5.418;2023-08-31T12:57:37;10.00;;;4.38;;
32295;SDS011;18781;51.550;5.418;2023-08-31T13:00:03;10.95;;;4.55;;
32295;SDS011;18781;51.550;5.418;2023-08-31T13:02:36;13.10;;;4.47;;
32295;SDS011;18781;51.550;5.418;2023-08-31T13:05:04;10.20;;;4.60;;
32295;SDS011;18781;51.550;5.418;2023-08-31T13:07:30;11.13;;;4.75;;
32295;SDS011;18781;51.550;5.418;2023-08-31T13:09:57;12.57;;;4.57;;
32295;SDS011;18781;51.550;5.418;2023-08-31T13:12:25;9.68;;;4.32;;
32295;SDS011;18781;51.550;5.418;2023-08-31T13:14:50;9.43;;;4.15;;
32295;SDS011;18781;51.550;5.418;2023-08-31T13:17:16;8.23;;;4.03;;
32295;SDS011;18781;51.550;5.418;2023-08-31T13:19:41;9.20;;;4.07;;
32295;SDS011;18781;51.550;5.418;2023-08-31T13:22:07;11.75;;;4.60;;
32295;SDS011;18781;51.550;5.418;2023-08-31T13:24:33;10.27;;;4.45;;
32295;SDS011;18781;51.550;5.418;2023-08-31T13:26:58;9.45;;;4.20;;
32295;SDS011;18781;51.550;5.418;2023-08-31T13:29:24;7.93;;;4.20;;
32295;SDS011;18781;51.550;5.418;2023-08-31T13:31:49;7.78;;;4.03;;
32295;SDS011;18781;51.550;5.418;2023-08-31T13:34:15;10.65;;;4.57;;
32295;SDS011;18781;51.550;5.418;2023-08-31T13:36:41;8.10;;;4.35;;
32295;SDS011;18781;51.550;5.418;2023-08-31T13:39:06;11.35;;;5.00;;
32295;SDS011;18781;51.550;5.418;2023-08-31T13:41:32;7.35;;;4.65;;
32295;SDS011;18781;51.550;5.418;2023-08-31T13:43:58;10.55;;;4.78;;
32295;SDS011;18781;51.550;5.418;2023-08-31T13:46:24;8.73;;;4.30;;
32295;SDS011;18781;51.550;5.418;2023-08-31T13:48:49;8.70;;;4.70;;
32295;SDS011;18781;51.550;5.418;2023-08-31T13:51:15;9.52;;;4.65;;
32295;SDS011;18781;51.550;5.418;2023-08-31T13:53:40;6.85;;;3.97;;
32295;SDS011;18781;51.550;5.418;2023-08-31T13:56:06;6.78;;;4.50;;
32295;SDS011;18781;51.550;5.418;2023-08-31T13:58:32;10.18;;;3.90;;
32295;SDS011;18781;51.550;5.418;2023-08-31T14:01:00;7.28;;;3.90;;
32295;SDS011;18781;51.550;5.418;2023-08-31T14:03:26;8.40;;;3.80;;
32295;SDS011;18781;51.550;5.418;2023-08-31T14:05:52;12.35;;;4.00;;
32295;SDS011;18781;51.550;5.418;2023-08-31T14:08:17;6.45;;;4.00;;
32295;SDS011;18781;51.550;5.418;2023-08-31T14:10:43;7.30;;;3.42;;
32295;SDS011;18781;51.550;5.418;2023-08-31T14:13:08;8.40;;;3.95;;
32295;SDS011;18781;51.550;5.418;2023-08-31T14:15:34;8.55;;;3.30;;
32295;SDS011;18781;51.550;5.418;2023-08-31T14:18:00;6.80;;;3.42;;
32295;SDS011;18781;51.550;5.418;2023-08-31T14:20:25;8.27;;;3.72;;
32295;SDS011;18781;51.550;5.418;2023-08-31T14:22:51;9.10;;;3.47;;
32295;SDS011;18781;51.550;5.418;2023-08-31T14:25:16;7.20;;;3.60;;
32295;SDS011;18781;51.550;5.418;2023-08-31T14:27:42;10.30;;;4.25;;
32295;SDS011;18781;51.550;5.418;2023-08-31T14:30:08;10.70;;;4.40;;
32295;SDS011;18781;51.550;5.418;2023-08-31T14:32:34;12.23;;;4.63;;
32295;SDS011;18781;51.550;5.418;2023-08-31T14:35:00;6.63;;;4.07;;
32295;SDS011;18781;51.550;5.418;2023-08-31T14:37:25;8.88;;;4.32;;
32295;SDS011;18781;51.550;5.418;2023-08-31T14:39:51;8.82;;;5.07;;
32295;SDS011;18781;51.550;5.418;2023-08-31T14:42:17;11.02;;;5.82;;
32295;SDS011;18781;51.550;5.418;2023-08-31T14:44:45;10.27;;;6.07;;
32295;SDS011;18781;51.550;5.418;2023-08-31T14:47:11;8.35;;;5.57;;
32295;SDS011;18781;51.550;5.418;2023-08-31T14:49:38;12.15;;;5.97;;
32295;SDS011;18781;51.550;5.418;2023-08-31T14:52:04;12.68;;;6.80;;
32295;SDS011;18781;51.550;5.418;2023-08-31T14:54:31;12.15;;;7.43;;
32295;SDS011;18781;51.550;5.418;2023-08-31T14:56:58;12.80;;;7.03;;
32295;SDS011;18781;51.550;5.418;2023-08-31T14:59:23;12.52;;;6.85;;
32295;SDS011;18781;51.550;5.418;2023-08-31T15:01:49;15.13;;;6.72;;